DIRECCIÓN GENERAL DE AERONÁUTICA CIVIL
DIRECCIÓN METEOROLÓGICA DE CHILE
INFORMACIÓN METAR Y TAF

FIR PUERTO MONTT

Estación: SCQP
METAR SCQP 050600Z 09006KT 060V120 9999 FEW040 BKN087 11/06 Q1003=

TAF SCQP 050447Z 0506/0606 03015KT 9999 FEW040 OVC080 TX13/0519Z TN09/0606Z BECMG 0510/0512 5000 -RA OVC020 TEMPO 0512/0522 8000 BECMG 0522/0524 35005KT 8000=

Estación: SCVD
METAR SCVD 050600Z AUTO 08007KT 9999 SCT043 11/06 Q1002=

TAF SCVD 041630Z 0418/0506 02010KT CAVOK TX14/0418Z TN10/0506Z BECMG 0423/0501 SCT030 BKN050=

Estación: SCJO
METAR SCJO 042200Z 35007KT 320V070 9999 FEW033 OVC070 13/03 Q1005=

TAF SCJO 041630Z 0418/0506 01010KT 9999 SCT040 OVC060 TX13/0418Z TN10/0424Z=

Estación: SCTE
METAR SCTE 050600Z 36020KT 5000 -RA SCT050 OVC100 11/06 Q1000 NOSIG=

TAF SCTE 050448Z 0506/0606 01022KT 5000 -RA OVC030 TX10/0518Z TN07/0606Z TEMPO 0506/0512 8000 BECMG 0510/0512 32007KT 5000 -RA OVC015 BECMG 0603/0605 8000 OVC025=

Estación: SCPQ
METAR SCPQ 050400Z AUTO 35015KT 4500 RA BKN003 OVC010 08/08 Q0997 RERA=

TAF SCPQ 041630Z 0418/0506 34010KT 9999 OVC020 TX10/0418Z TN08/0506Z BECMG 0419/0421 36015G33KT 5000 RA OVC015=

Estación: SCON
METAR SCON 050600Z AUTO 01008KT 320V060 6000 RA 10/09 Q0997=

TAF SCON NIL=

Estación: SCTN
SPECI SCTN 050601Z AUTO 35019G29KT 9000 RA BKN037 11/10 Q0998=

TAF SCTN 041630Z 0418/0506 04012KT 9999 OVC025 TX12/0418Z TN10/0506Z BECMG 0420/0422 5000 RA=

Estación: SCFT
METAR SCFT 050600Z AUTO 00000KT 8000 RA ///004 05/04 Q0998=

NIL=

Estación: SCAP
SPECI SCAP 050619Z AUTO VRB02KT //// // SCT002 OVC026 05/05 Q1003=

NIL=

Estación: SCMK
METAR SCMK 042100Z 02024G42KT 4000 RA OVC008 10/08 Q0997=

TAF SCMK 041630Z 0418/0506 02020G35KT 5000 RA OVC010 TX11/0418Z TN09/0424Z=

Estación: SCAS
METAR SCAS 042000Z 04010KT 8000 -RA FEW016 OVC040 06/05 Q1002=

NIL=

Estación: SCCY
METAR SCCY 050000Z 35002KT 5000 -SHRA SCT010 OVC026 04/02 Q0998=

TAF SCCY 041630Z 0418/0506 VRB02KT 5000 RA SCT015 BKN030 TX04/0418Z TN02/0424Z BECMG 0423/0501 24007G17KT=

Estación: SCBA
METAR SCBA 050600Z AUTO 13002KT 9999 -DZ SCT040 OVC049 02/01 Q0991=

TAF SCBA 050450Z 0506/0606 32012KT 9999 BKN035 TX06/0516Z TN01/0606Z BECMG 0514/0516 SCT040=

Estación: SCCC
METAR SCCC 042000Z 15004KT 9999 SCT025 OVC070 06/02 Q1004=

NIL=

Estación: SCHR
METAR SCHR 042000Z 29006KT 9999 FEW015 OVC020 05/01 Q0998=

TAF SCHR 041034Z 0412/0500 29005KT CAVOK TNM01/0412Z TX07/0419Z TEMPO 0412/0416 VRB03KT BECMG 0417/0419 08005KT 8000 RA BKN035=


Volver